Badan Meteorologi, Klimatologi, dan Geofisika

CUACA TERKINI BANDARA KUALANAMU

Minggu, 27 September 2020 09:09 UTC

Cuaca : Berawan

Angin : (dari) Timur Laut, 20.4 km/jam

Jarak Pandang : >=10 km

Suhu : 30 °C

Waktu Pengamatan : 15:30 WIB

Selengkapnya>>>

DATA METEOROLOGI KUALANAMU

Data Metar Terbaru

TAF WIMM 270500Z 2706/2806 03008KT 9999 SCT018 BECMG 2712/2714 VRB03KT 4000 HZ BECMG 2801/2803 12006KT 9999 =

Selengkapnya>>>

Data TAF Terbaru

TAF WIMM 270500Z 2706/2806 03008KT 9999 SCT018 BECMG 2712/2714 VRB03KT 4000 HZ BECMG 2801/2803 12006KT 9999 =

Selengkapnya>>>

CITRA SATELIT

Enhanced
Citra Satelit
Cloud Type
Citra Satelit IR
Hotspot
Citra Satelit
Sebaran Asap
Citra Satelit